Time;durP1;ratioP1;P1;durP2;ratioP2;P2;SDS_P1;SDS_P2;PMS_P1;PMS_P2;Temp;Humidity;BMP_temperature;BMP_pressure;BME280_temperature;BME280_humidity;BME280_pressure;Samples;Min_cycle;Max_cycle;Signal;HPM_P1;HPM_P2
2022/06/06 00:00:31;;;;;;;;;;;;;;;27.45;52.25;98774.06;2076405;28;20472;-54
2022/06/06 00:01:32;;;;;;;;;;;;;;;27.44;52.50;98766.94;2076898;28;20440;-54
2022/06/06 00:02:34;;;;;;;;;;;;;;;27.44;52.58;98764.22;2080369;28;19929;-54
2022/06/06 00:03:34;;;;;;;;;;;;;;;27.44;52.53;98762.31;2079588;28;19998;-53
2022/06/06 00:04:37;;;;;;;;;;;;;;;27.44;52.62;98758.78;2080474;28;19932;-50
2022/06/06 00:05:40;;;;;;;;;;;;;;;27.43;52.35;98757.97;2078237;28;21054;-53
2022/06/06 00:06:42;;;;;;;;;;;;;;;27.43;52.76;98757.97;2080318;28;19936;-56
2022/06/06 00:07:43;;;;;;;;;;;;;;;27.42;52.27;98758.25;2078516;28;19928;-55
2022/06/06 00:08:46;;;;;;;;;;;;;;;27.44;52.25;98753.34;2081239;28;19939;-50
2022/06/06 00:09:47;;;;;;;;;;;;;;;27.43;52.58;98759.88;2075169;28;19940;-53
2022/06/06 00:10:55;;;;;;;;;;;;;;;27.42;52.26;98756.34;2078804;28;20830;-52
2022/06/06 00:11:56;;;;;;;;;;;;;;;27.45;52.32;98757.72;2078331;28;19929;-53
2022/06/06 00:12:57;;;;;;;;;;;;;;;27.43;52.48;98765.31;2080687;28;19929;-54
2022/06/06 00:13:58;;;;;;;;;;;;;;;27.43;52.72;98759.88;2079289;28;21209;-53
2022/06/06 00:15:00;;;;;;;;;;;;;;;27.40;52.87;98772.09;2082051;28;19929;-51
2022/06/06 00:16:00;;;;;;;;;;;;;;;27.42;52.49;98766.41;2079255;28;19932;-55
2022/06/06 00:17:02;;;;;;;;;;;;;;;27.39;52.44;98771.28;2081895;28;20599;-53
2022/06/06 00:18:03;;;;;;;;;;;;;;;27.42;52.73;98774.59;2082076;28;19935;-55
2022/06/06 00:19:05;;;;;;;;;;;;;;;27.40;52.72;98772.09;2082571;28;20028;-54
2022/06/06 00:20:06;;;;;;;;;;;;;;;27.40;52.49;98778.38;2079614;28;20015;-56
2022/06/06 00:21:09;;;;;;;;;;;;;;;27.39;52.61;98775.91;2081696;28;20268;-52
2022/06/06 00:22:10;;;;;;;;;;;;;;;27.38;52.73;98769.63;2079045;28;19943;-56
2022/06/06 00:23:12;;;;;;;;;;;;;;;27.37;52.52;98773.44;2080629;28;20015;-53
2022/06/06 00:24:14;;;;;;;;;;;;;;;27.36;52.80;98771.81;2077203;28;19929;-56
2022/06/06 00:25:15;;;;;;;;;;;;;;;27.38;52.68;98775.06;2080359;28;19929;-54
2022/06/06 00:26:17;;;;;;;;;;;;;;;27.38;52.94;98775.06;2077933;28;19944;-54
2022/06/06 00:27:19;;;;;;;;;;;;;;;27.37;52.67;98759.81;2079059;28;20059;-55
2022/06/06 00:28:20;;;;;;;;;;;;;;;27.37;52.72;98767.19;2078815;28;19933;-52
2022/06/06 00:29:22;;;;;;;;;;;;;;;27.37;52.39;98768.00;2078911;28;19963;-55
2022/06/06 00:30:22;;;;;;;;;;;;;;;27.38;52.54;98766.91;2079349;28;20027;-51
2022/06/06 00:35:21;;;;;;;;;;;;;;;27.39;52.66;98768.56;2081714;28;19928;-54
2022/06/06 00:36:22;;;;;;;;;;;;;;;27.39;52.38;98759.56;2080781;28;28093;-55
2022/06/06 00:37:25;;;;;;;;;;;;;;;27.38;52.45;98758.72;2079075;28;19998;-55
2022/06/06 00:38:25;;;;;;;;;;;;;;;27.37;52.39;98759.00;2082555;28;19932;-53
2022/06/06 00:39:28;;;;;;;;;;;;;;;27.40;52.50;98759.31;2079952;28;19959;-54
2022/06/06 00:40:30;;;;;;;;;;;;;;;27.37;52.69;98759.81;2079261;28;20906;-49
2022/06/06 00:41:32;;;;;;;;;;;;;;;27.38;52.62;98749.75;2079261;28;19978;-55
2022/06/06 00:42:33;;;;;;;;;;;;;;;27.38;52.65;98747.03;2080506;28;19929;-55
2022/06/06 00:43:35;;;;;;;;;;;;;;;27.37;52.76;98751.66;2079233;28;21145;-53
2022/06/06 00:44:37;;;;;;;;;;;;;;;27.38;52.54;98752.47;2077904;28;19932;-52
2022/06/06 00:45:38;;;;;;;;;;;;;;;27.37;52.76;98745.38;2079651;28;19954;-55
2022/06/06 00:46:42;;;;;;;;;;;;;;;27.36;52.52;98743.75;2081712;28;20933;-52
2022/06/06 00:47:44;;;;;;;;;;;;;;;27.42;52.58;98758.25;2078887;28;19935;-56
2022/06/06 00:48:45;;;;;;;;;;;;;;;27.42;51.83;98750.06;2080010;28;20400;-55
2022/06/06 00:49:48;;;;;;;;;;;;;;;27.42;52.19;98750.88;2080436;28;19929;-52
2022/06/06 00:50:54;;;;;;;;;;;;;;;27.40;52.60;98753.84;2082320;28;19932;-54
2022/06/06 00:51:55;;;;;;;;;;;;;;;27.37;52.58;98745.38;2078930;28;19929;-53
2022/06/06 00:52:59;;;;;;;;;;;;;;;27.35;52.60;98751.06;2079392;28;20461;-54
2022/06/06 00:53:59;;;;;;;;;;;;;;;27.36;52.46;98746.47;2075101;28;19929;-54
2022/06/06 00:55:05;;;;;;;;;;;;;;;27.34;52.88;98752.16;2079463;28;19998;-53
2022/06/06 00:56:08;;;;;;;;;;;;;;;27.34;52.64;98744.00;2079458;28;20370;-55
2022/06/06 00:57:13;;;;;;;;;;;;;;;27.35;52.78;98742.09;2078312;28;19934;-54
2022/06/06 00:58:16;;;;;;;;;;;;;;;27.35;52.56;98731.19;2077865;28;19929;-52
2022/06/06 00:59:20;;;;;;;;;;;;;;;27.36;52.48;98735.59;2080367;28;19929;-51
2022/06/06 01:00:22;;;;;;;;;;;;;;;27.37;52.22;98732.59;2079191;28;19929;-53
2022/06/06 01:01:26;;;;;;;;;;;;;;;27.37;51.69;98735.31;2079054;28;20019;-53
2022/06/06 01:02:26;;;;;;;;;;;;;;;27.37;51.78;98732.59;2079180;28;19968;-54
2022/06/06 01:03:29;;;;;;;;;;;;;;;27.37;51.42;98745.38;2079008;28;19929;-55
2022/06/06 01:04:30;;;;;;;;;;;;;;;27.35;51.32;98734.75;2080123;28;19933;-51
2022/06/06 01:05:32;;;;;;;;;;;;;;;27.32;51.14;98732.53;2076967;28;20517;-52
2022/06/06 01:06:35;;;;;;;;;;;;;;;27.32;50.78;98732.53;2078907;28;19931;-51
2022/06/06 01:07:36;;;;;;;;;;;;;;;27.28;50.85;98731.44;2079023;28;19933;-53
2022/06/06 01:08:38;;;;;;;;;;;;;;;27.30;50.55;98732.00;2080901;28;19940;-53
2022/06/06 01:09:41;;;;;;;;;;;;;;;27.28;50.75;98728.69;2079194;28;19928;-54
2022/06/06 01:10:43;;;;;;;;;;;;;;;27.28;50.82;98736.88;2079478;28;19932;-53
2022/06/06 01:11:46;;;;;;;;;;;;;;;27.26;50.55;98728.13;2075645;28;19929;-53
2022/06/06 01:12:48;;;;;;;;;;;;;;;27.27;50.40;98731.66;2080734;28;19940;-53
2022/06/06 01:13:50;;;;;;;;;;;;;;;27.27;50.74;98727.03;2078542;28;19994;-55
2022/06/06 01:14:55;;;;;;;;;;;;;;;27.25;50.61;98723.78;2078482;28;19929;-52
2022/06/06 01:16:04;;;;;;;;;;;;;;;27.22;50.88;98723.44;2077182;28;21051;-55
2022/06/06 01:17:08;;;;;;;;;;;;;;;27.22;50.61;98732.47;2082730;28;19928;-54
2022/06/06 01:18:13;;;;;;;;;;;;;;;27.23;50.31;98725.94;2076471;28;19929;-55
2022/06/06 01:19:34;;;;;;;;;;;;;;;27.24;50.17;98726.75;2081915;28;19972;-56
2022/06/06 01:20:43;;;;;;;;;;;;;;;27.21;50.20;98728.06;2081249;28;19929;-53
2022/06/06 01:22:06;;;;;;;;;;;;;;;27.20;49.93;98726.44;2082337;28;19929;-55
2022/06/06 01:23:33;;;;;;;;;;;;;;;27.17;50.22;98724.25;2081767;28;19937;-53
2022/06/06 01:24:43;;;;;;;;;;;;;;;27.15;50.20;98724.44;2077008;28;19940;-54
2022/06/06 01:26:11;;;;;;;;;;;;;;;27.14;50.35;98733.72;2079910;28;19933;-54
2022/06/06 01:27:25;;;;;;;;;;;;;;;27.12;50.45;98733.13;2055391;28;19930;-51
2022/06/06 01:28:35;;;;;;;;;;;;;;;27.14;50.17;98730.19;2073671;28;20011;-53
2022/06/06 01:29:39;;;;;;;;;;;;;;;27.17;50.13;98735.13;2079886;28;19936;-53
2022/06/06 01:30:42;;;;;;;;;;;;;;;27.13;49.81;98731.22;2081081;28;19935;-53
2022/06/06 01:31:48;;;;;;;;;;;;;;;27.12;49.91;98733.13;2079231;28;20786;-52
2022/06/06 01:32:51;;;;;;;;;;;;;;;27.09;50.27;98721.94;2081582;28;19929;-54
2022/06/06 01:33:54;;;;;;;;;;;;;;;27.08;50.51;98723.84;2079946;28;19925;-55
2022/06/06 01:34:54;;;;;;;;;;;;;;;27.11;50.03;98731.50;2081956;28;19936;-55
2022/06/06 01:36:01;;;;;;;;;;;;;;;27.11;50.21;98725.25;2077584;28;20020;-52
2022/06/06 01:37:02;;;;;;;;;;;;;;;27.12;49.84;98724.97;2080809;28;19929;-54
2022/06/06 01:38:04;;;;;;;;;;;;;;;27.09;49.92;98719.22;2080306;28;19955;-52
2022/06/06 01:39:07;;;;;;;;;;;;;;;27.07;50.00;98721.38;2082761;28;20891;-52
2022/06/06 01:40:10;;;;;;;;;;;;;;;27.08;50.22;98721.13;2080523;28;19991;-53
2022/06/06 01:41:11;;;;;;;;;;;;;;;27.09;50.15;98721.94;2081920;28;19929;-54
2022/06/06 01:42:15;;;;;;;;;;;;;;;27.10;50.15;98716.22;2081460;28;20996;-55
2022/06/06 01:43:19;;;;;;;;;;;;;;;27.11;50.44;98719.81;2081453;28;19928;-52
2022/06/06 01:44:26;;;;;;;;;;;;;;;27.11;50.36;98720.63;2078721;28;19935;-53
2022/06/06 01:45:29;;;;;;;;;;;;;;;27.10;50.00;98716.22;2084219;28;19929;-57
2022/06/06 01:46:34;;;;;;;;;;;;;;;27.09;50.18;98721.94;2082840;28;21238;-54
2022/06/06 01:47:38;;;;;;;;;;;;;;;27.09;49.83;98721.94;2082475;28;19952;-53
2022/06/06 01:48:40;;;;;;;;;;;;;;;27.08;50.72;98715.69;2078991;28;19929;-54
2022/06/06 01:49:42;;;;;;;;;;;;;;;27.09;49.89;98713.78;2079780;28;19971;-54
2022/06/06 01:50:43;;;;;;;;;;;;;;;27.08;50.41;98718.41;2079637;28;19965;-52
2022/06/06 01:51:57;;;;;;;;;;;;;;;27.09;49.96;98709.16;2077532;28;19937;-52
2022/06/06 01:52:59;;;;;;;;;;;;;;;27.08;49.94;98712.97;2081753;28;20904;-55
2022/06/06 01:54:01;;;;;;;;;;;;;;;27.08;50.22;98715.69;2077037;28;19936;-56
2022/06/06 01:55:02;;;;;;;;;;;;;;;27.09;50.28;98724.66;2083403;28;19936;-54
2022/06/06 01:56:05;;;;;;;;;;;;;;;27.12;50.13;98726.88;2081055;28;19929;-56
2022/06/06 01:57:07;;;;;;;;;;;;;;;27.13;50.32;98717.63;2081561;28;19929;-53
2022/06/06 01:58:11;;;;;;;;;;;;;;;27.15;50.86;98720.91;2078746;28;21028;-54
2022/06/06 01:59:12;;;;;;;;;;;;;;;27.16;50.68;98719.84;2080216;28;19928;-55
2022/06/06 02:00:16;;;;;;;;;;;;;;;27.16;50.54;98728.03;2077284;28;20024;-55
2022/06/06 02:01:17;;;;;;;;;;;;;;;27.18;51.05;98717.72;2082068;28;19951;-53
2022/06/06 02:02:19;;;;;;;;;;;;;;;27.15;51.21;98724.44;2077082;28;19929;-52
2022/06/06 02:03:20;;;;;;;;;;;;;;;27.16;50.80;98723.44;2081661;28;20019;-53
2022/06/06 02:04:21;;;;;;;;;;;;;;;27.17;51.21;98724.25;2080907;28;19928;-54
2022/06/06 02:05:22;;;;;;;;;;;;;;;27.18;51.77;98720.44;2080976;28;20008;-56
2022/06/06 02:06:24;;;;;;;;;;;;;;;27.15;51.52;98726.34;2079803;28;19979;-51
2022/06/06 02:07:25;;;;;;;;;;;;;;;27.17;51.72;98716.06;2080582;28;19929;-55
2022/06/06 02:08:26;;;;;;;;;;;;;;;27.15;51.65;98715.47;2078858;28;20422;-56
2022/06/06 02:09:31;;;;;;;;;;;;;;;27.17;51.73;98724.25;2083117;28;19929;-53
2022/06/06 02:10:33;;;;;;;;;;;;;;;27.18;52.11;98715.78;2081621;28;20019;-52
2022/06/06 02:11:34;;;;;;;;;;;;;;;27.17;51.68;98713.34;2082605;28;19932;-52
2022/06/06 02:12:36;;;;;;;;;;;;;;;27.16;51.99;98720.69;2080245;28;19928;-55
2022/06/06 02:13:37;;;;;;;;;;;;;;;27.18;51.94;98713.06;2081302;28;19928;-56
2022/06/06 02:14:39;;;;;;;;;;;;;;;27.21;51.98;98719.91;2080676;28;20661;-55
2022/06/06 02:15:42;;;;;;;;;;;;;;;27.21;52.33;98722.63;2080137;28;19968;-55
2022/06/06 02:16:43;;;;;;;;;;;;;;;27.19;51.99;98719.34;2079043;28;19933;-56
2022/06/06 02:17:45;;;;;;;;;;;;;;;27.21;51.90;98725.34;2076892;28;19933;-53
2022/06/06 02:18:47;;;;;;;;;;;;;;;27.22;51.99;98723.44;2081725;28;19936;-52
2022/06/06 02:19:48;;;;;;;;;;;;;;;27.18;52.51;98718.53;2078277;28;20303;-53
2022/06/06 02:20:49;;;;;;;;;;;;;;;27.18;52.12;98725.88;2081220;28;19929;-53
2022/06/06 02:21:50;;;;;;;;;;;;;;;27.20;52.28;98723.72;2079896;28;19932;-54
2022/06/06 02:22:52;;;;;;;;;;;;;;;27.18;52.23;98721.25;2079977;28;19929;-54
2022/06/06 02:23:53;;;;;;;;;;;;;;;27.20;52.52;98715.56;2083788;28;19936;-54
2022/06/06 02:24:55;;;;;;;;;;;;;;;27.21;52.08;98719.09;2083907;28;19929;-55
2022/06/06 02:25:55;;;;;;;;;;;;;;;27.20;52.17;98721.00;2078807;28;19929;-54
2022/06/06 02:26:57;;;;;;;;;;;;;;;27.20;52.20;98721.00;2080515;28;20023;-55
2022/06/06 02:27:58;;;;;;;;;;;;;;;27.20;51.93;98715.56;2079255;28;19936;-54
2022/06/06 02:28:59;;;;;;;;;;;;;;;27.22;52.41;98718.00;2079595;28;20029;-52
2022/06/06 02:30:00;;;;;;;;;;;;;;;27.19;52.07;98711.16;2081427;28;19929;-54
2022/06/06 02:31:03;;;;;;;;;;;;;;;27.21;52.38;98710.94;2081058;28;19935;-53
2022/06/06 02:32:05;;;;;;;;;;;;;;;27.21;52.12;98713.66;2080579;28;19929;-55
2022/06/06 02:33:06;;;;;;;;;;;;;;;27.20;52.17;98704.66;2081269;28;19981;-54
2022/06/06 02:34:07;;;;;;;;;;;;;;;27.20;52.22;98712.84;2080542;28;20062;-54
2022/06/06 02:35:10;;;;;;;;;;;;;;;27.18;52.47;98710.34;2077298;28;20422;-52
2022/06/06 02:36:11;;;;;;;;;;;;;;;27.18;52.09;98710.34;2080580;28;19940;-55
2022/06/06 02:37:12;;;;;;;;;;;;;;;27.18;52.21;98706.81;2080535;28;19935;-54
2022/06/06 02:38:13;;;;;;;;;;;;;;;27.18;52.20;98709.53;2077911;28;19929;-54
2022/06/06 02:39:14;;;;;;;;;;;;;;;27.17;52.18;98702.47;2078962;28;19930;-53
2022/06/06 02:40:16;;;;;;;;;;;;;;;27.19;52.54;98705.72;2079104;28;19929;-55
2022/06/06 02:41:18;;;;;;;;;;;;;;;27.16;52.34;98708.97;2082497;28;19933;-53
2022/06/06 02:42:18;;;;;;;;;;;;;;;27.16;52.22;98711.69;2080617;28;19929;-55
2022/06/06 02:43:21;;;;;;;;;;;;;;;27.16;52.65;98714.41;2078764;28;19959;-54
2022/06/06 02:44:21;;;;;;;;;;;;;;;27.15;52.41;98708.13;2078403;28;19940;-54
2022/06/06 02:45:23;;;;;;;;;;;;;;;27.15;52.36;98708.13;2079537;28;19940;-52
2022/06/06 02:46:25;;;;;;;;;;;;;;;27.17;52.26;98716.06;2082162;28;19932;-55
2022/06/06 02:47:26;;;;;;;;;;;;;;;27.15;52.37;98716.28;2079425;28;20829;-53
2022/06/06 02:48:27;;;;;;;;;;;;;;;27.14;52.46;98711.94;2079352;28;19936;-56
2022/06/06 02:49:29;;;;;;;;;;;;;;;27.16;52.59;98711.69;2080252;28;20493;-56
2022/06/06 02:50:31;;;;;;;;;;;;;;;27.15;52.55;98708.13;2079998;28;20045;-50
2022/06/06 02:51:32;;;;;;;;;;;;;;;27.15;52.76;98710.03;2078918;28;19929;-56
2022/06/06 02:52:33;;;;;;;;;;;;;;;27.14;52.55;98711.13;2076460;28;19935;-56
2022/06/06 02:53:35;;;;;;;;;;;;;;;27.14;52.42;98708.38;2081333;28;21365;-55
2022/06/06 02:54:36;;;;;;;;;;;;;;;27.16;52.83;98711.69;2080051;28;19952;-53
2022/06/06 02:55:37;;;;;;;;;;;;;;;27.13;52.38;98710.25;2078325;28;19932;-56
2022/06/06 02:56:39;;;;;;;;;;;;;;;27.15;52.40;98710.03;2079484;28;19928;-55
2022/06/06 02:57:41;;;;;;;;;;;;;;;27.16;52.87;98706.25;2080009;28;21028;-55
2022/06/06 02:58:42;;;;;;;;;;;;;;;27.16;52.46;98703.53;2079602;28;19928;-55
2022/06/06 02:59:45;;;;;;;;;;;;;;;27.14;52.47;98703.75;2078759;28;20491;-56
2022/06/06 03:00:46;;;;;;;;;;;;;;;27.14;52.58;98703.75;2081196;28;19929;-55
2022/06/06 03:01:49;;;;;;;;;;;;;;;27.14;52.90;98708.38;2076913;28;19939;-54
2022/06/06 03:02:50;;;;;;;;;;;;;;;27.12;52.38;98705.91;2081322;28;19928;-55
2022/06/06 03:03:52;;;;;;;;;;;;;;;27.12;52.81;98711.34;2080281;28;19935;-54
2022/06/06 03:04:52;;;;;;;;;;;;;;;27.12;52.47;98710.53;2080730;28;19928;-55
2022/06/06 03:05:58;;;;;;;;;;;;;;;27.13;52.64;98714.91;2079016;28;19971;-56
2022/06/06 03:07:07;;;;;;;;;;;;;;;27.15;52.81;98710.03;2079384;28;19929;-55
2022/06/06 03:08:13;;;;;;;;;;;;;;;27.14;52.49;98711.94;2081001;28;20582;-55
2022/06/06 03:09:33;;;;;;;;;;;;;;;27.13;52.46;98717.63;2079120;28;19929;-53
2022/06/06 03:10:41;;;;;;;;;;;;;;;27.13;52.49;98717.63;2082027;28;19929;-55
2022/06/06 03:11:54;;;;;;;;;;;;;;;27.15;51.95;98715.47;2081475;28;19929;-53
2022/06/06 03:13:02;;;;;;;;;;;;;;;27.13;52.30;98723.88;2082072;28;20014;-54
2022/06/06 03:14:14;;;;;;;;;;;;;;;27.13;52.17;98717.63;2081961;28;19928;-56
2022/06/06 03:15:30;;;;;;;;;;;;;;;27.11;52.51;98719.81;2080713;28;19963;-56
2022/06/06 03:21:06;;;;;;;;;;;;;;;27.14;52.70;98716.56;2061899;28;19930;-56
2022/06/06 03:22:11;;;;;;;;;;;;;;;27.13;52.55;98717.63;2082265;28;19928;-56
2022/06/06 03:23:34;;;;;;;;;;;;;;;27.14;52.54;98716.56;2081968;28;19928;-55
2022/06/06 03:24:41;;;;;;;;;;;;;;;27.13;52.80;98718.44;2078046;28;19935;-53
2022/06/06 03:25:47;;;;;;;;;;;;;;;27.13;52.41;98725.78;2082408;28;19929;-57
2022/06/06 03:26:53;;;;;;;;;;;;;;;27.14;52.91;98727.44;2078825;28;19929;-54
2022/06/06 03:27:59;;;;;;;;;;;;;;;27.14;52.41;98727.44;2081854;28;20120;-52
2022/06/06 03:29:08;;;;;;;;;;;;;;;27.14;52.39;98724.72;2081774;28;20649;-54
2022/06/06 03:30:14;;;;;;;;;;;;;;;27.14;52.32;98730.19;2082890;28;19929;-54
2022/06/06 03:31:20;;;;;;;;;;;;;;;27.12;52.44;98724.97;2082246;28;19944;-53
2022/06/06 03:32:27;;;;;;;;;;;;;;;27.14;52.30;98730.19;2081813;28;19936;-53
2022/06/06 03:33:37;;;;;;;;;;;;;;;27.15;52.54;98731.81;2080768;28;20434;-53
2022/06/06 03:34:43;;;;;;;;;;;;;;;27.12;52.38;98733.13;2084172;28;19933;-54
2022/06/06 03:35:49;;;;;;;;;;;;;;;27.14;52.38;98735.63;2080737;28;19963;-53
2022/06/06 03:36:58;;;;;;;;;;;;;;;27.14;52.42;98735.63;2081403;28;19928;-56
2022/06/06 03:38:02;;;;;;;;;;;;;;;27.13;52.73;98732.06;2081389;28;19939;-55
2022/06/06 03:39:07;;;;;;;;;;;;;;;27.14;52.40;98736.44;2082237;28;19936;-55
2022/06/06 03:40:12;;;;;;;;;;;;;;;27.13;52.73;98733.97;2081619;28;19935;-51
2022/06/06 03:41:16;;;;;;;;;;;;;;;27.13;52.49;98736.69;2081781;28;19975;-55
2022/06/06 03:42:21;;;;;;;;;;;;;;;27.14;52.30;98741.88;2080725;28;20715;-54
2022/06/06 03:43:39;;;;;;;;;;;;;;;27.14;52.35;98735.63;2079304;28;19929;-55
2022/06/06 03:44:50;;;;;;;;;;;;;;;27.14;52.33;98739.16;2083166;28;20008;-56
2022/06/06 03:45:54;;;;;;;;;;;;;;;27.14;52.69;98738.34;2081826;28;21023;-57
2022/06/06 03:46:59;;;;;;;;;;;;;;;27.13;52.53;98736.69;2081130;28;20712;-56
2022/06/06 03:48:06;;;;;;;;;;;;;;;27.14;52.48;98741.88;2081266;28;20353;-54
2022/06/06 03:49:16;;;;;;;;;;;;;;;27.14;52.56;98741.88;2081115;28;20020;-55
2022/06/06 03:50:21;;;;;;;;;;;;;;;27.15;52.27;98748.13;2081314;28;19978;-57
2022/06/06 03:51:27;;;;;;;;;;;;;;;27.14;52.50;98744.59;2080037;28;19933;-55
2022/06/06 03:52:36;;;;;;;;;;;;;;;27.12;52.50;98749.47;2079414;28;19936;-60
2022/06/06 03:53:45;;;;;;;;;;;;;;;27.14;52.37;98746.50;2081525;28;19929;-54
2022/06/06 03:54:51;;;;;;;;;;;;;;;27.12;52.39;98751.38;2081723;28;19982;-56
2022/06/06 03:56:01;;;;;;;;;;;;;;;27.12;52.78;98749.47;2081795;28;20006;-54
2022/06/06 03:57:14;;;;;;;;;;;;;;;27.12;52.78;98760.38;2081983;28;20386;-54
2022/06/06 03:58:17;;;;;;;;;;;;;;;27.13;52.61;98753.00;2081166;28;21854;-52
2022/06/06 03:59:19;;;;;;;;;;;;;;;27.13;52.75;98744.84;2080851;28;19975;-56
2022/06/06 04:00:22;;;;;;;;;;;;;;;27.13;52.48;98747.56;2078760;28;20028;-53
2022/06/06 04:01:23;;;;;;;;;;;;;;;27.13;52.30;98742.13;2080346;28;20061;-52
2022/06/06 04:02:28;;;;;;;;;;;;;;;27.12;52.58;98745.94;2081969;28;19986;-54
2022/06/06 04:03:31;;;;;;;;;;;;;;;27.13;52.37;98744.84;2082276;28;20015;-49
2022/06/06 04:04:34;;;;;;;;;;;;;;;27.13;52.26;98751.09;2080402;28;19982;-55
2022/06/06 04:05:36;;;;;;;;;;;;;;;27.13;52.51;98750.28;2080565;28;19929;-53
2022/06/06 04:06:38;;;;;;;;;;;;;;;27.12;52.66;98754.91;2080874;28;19928;-55
2022/06/06 04:07:38;;;;;;;;;;;;;;;27.12;52.76;98751.38;2078405;28;20279;-54
2022/06/06 04:08:40;;;;;;;;;;;;;;;27.12;52.43;98748.66;2078517;28;19967;-53
2022/06/06 04:09:41;;;;;;;;;;;;;;;27.12;52.49;98745.94;2081266;28;19935;-55
2022/06/06 04:10:49;;;;;;;;;;;;;;;27.11;52.49;98744.31;2079337;28;20040;-53
2022/06/06 04:11:53;;;;;;;;;;;;;;;27.11;52.44;98758.72;2080030;28;19936;-55
2022/06/06 04:13:05;;;;;;;;;;;;;;;27.12;52.44;98748.66;2080303;28;19928;-52
2022/06/06 04:14:11;;;;;;;;;;;;;;;27.11;52.42;98747.84;2078457;28;19929;-53
2022/06/06 04:15:18;;;;;;;;;;;;;;;27.09;52.67;98754.63;2081389;28;19929;-55
2022/06/06 04:16:23;;;;;;;;;;;;;;;27.09;52.60;98757.34;2082799;28;20455;-54
2022/06/06 04:17:35;;;;;;;;;;;;;;;27.11;52.37;98757.91;2074823;28;20944;-53
2022/06/06 04:18:43;;;;;;;;;;;;;;;27.09;52.50;98757.34;2076911;28;20886;-55
2022/06/06 04:19:50;;;;;;;;;;;;;;;27.10;52.35;98746.19;2072336;28;19933;-55
2022/06/06 04:20:55;;;;;;;;;;;;;;;27.09;52.47;98746.44;2079180;28;19936;-54
2022/06/06 04:22:03;;;;;;;;;;;;;;;27.09;52.82;98754.63;2078136;28;19928;-54
2022/06/06 04:23:13;;;;;;;;;;;;;;;27.08;52.44;98759.25;2079584;28;20851;-52
2022/06/06 04:24:22;;;;;;;;;;;;;;;27.08;52.58;98759.25;2077860;28;19928;-53
2022/06/06 04:25:30;;;;;;;;;;;;;;;27.07;52.70;98757.59;2081410;28;19976;-52
2022/06/06 04:26:35;;;;;;;;;;;;;;;27.09;52.64;98760.88;2077863;28;21393;-51
2022/06/06 04:27:39;;;;;;;;;;;;;;;27.09;52.88;98760.06;2078826;28;20404;-53
2022/06/06 04:28:48;;;;;;;;;;;;;;;27.10;52.82;98761.69;2081331;28;19929;-55
2022/06/06 04:29:58;;;;;;;;;;;;;;;27.09;52.80;98760.06;2069418;28;21065;-52
2022/06/06 04:31:03;;;;;;;;;;;;;;;27.06;52.71;98755.94;2080075;28;21141;-51
2022/06/06 04:32:11;;;;;;;;;;;;;;;27.06;52.67;98752.41;2079812;28;20055;-55
2022/06/06 04:33:15;;;;;;;;;;;;;;;27.05;52.60;98753.47;2082250;28;19936;-55
2022/06/06 04:34:17;;;;;;;;;;;;;;;27.07;52.67;98756.75;2081896;28;19950;-52
2022/06/06 04:35:23;;;;;;;;;;;;;;;27.07;52.70;98757.59;2081604;28;19929;-54
2022/06/06 04:36:29;;;;;;;;;;;;;;;27.08;52.51;98755.69;2076304;28;19929;-53
2022/06/06 04:37:34;;;;;;;;;;;;;;;27.07;52.42;98762.22;2080081;28;19939;-54
2022/06/06 04:38:40;;;;;;;;;;;;;;;27.07;52.54;98756.75;2080835;28;19929;-53
2022/06/06 04:39:46;;;;;;;;;;;;;;;27.06;52.51;98761.41;2078592;28;19932;-53
2022/06/06 04:40:51;;;;;;;;;;;;;;;27.04;52.55;98755.38;2081569;28;19932;-54
2022/06/06 04:41:55;;;;;;;;;;;;;;;27.05;52.67;98753.47;2082393;28;19932;-52
2022/06/06 04:43:00;;;;;;;;;;;;;;;27.06;52.69;98753.22;2080082;28;20874;-54
2022/06/06 04:44:07;;;;;;;;;;;;;;;27.06;52.77;98755.94;2080271;28;19936;-51
2022/06/06 04:45:14;;;;;;;;;;;;;;;27.07;52.63;98756.75;2080685;28;19933;-55
2022/06/06 04:46:17;;;;;;;;;;;;;;;27.08;52.90;98753.81;2082485;28;20439;-53
2022/06/06 04:47:22;;;;;;;;;;;;;;;27.08;52.54;98759.25;2082257;28;20343;-53
2022/06/06 04:48:24;;;;;;;;;;;;;;;27.08;52.51;98753.81;2081036;28;19928;-56
2022/06/06 04:49:27;;;;;;;;;;;;;;;27.07;52.42;98760.31;2081357;28;19963;-54
2022/06/06 04:50:30;;;;;;;;;;;;;;;27.07;52.69;98759.50;2081530;28;20397;-54
2022/06/06 04:51:33;;;;;;;;;;;;;;;27.07;52.82;98756.75;2081498;28;19928;-49
2022/06/06 04:52:36;;;;;;;;;;;;;;;27.08;52.60;98756.53;2079327;28;19928;-55
2022/06/06 04:53:38;;;;;;;;;;;;;;;27.09;52.52;98754.63;2080263;28;19939;-53
2022/06/06 04:54:41;;;;;;;;;;;;;;;27.08;52.77;98761.13;2082160;28;19925;-57
2022/06/06 04:55:42;;;;;;;;;;;;;;;27.09;52.54;98754.63;2081254;28;19929;-53
2022/06/06 04:56:44;;;;;;;;;;;;;;;27.10;52.51;98750.81;2079583;28;20452;-49
2022/06/06 04:57:47;;;;;;;;;;;;;;;27.07;52.45;98757.59;2080379;28;19929;-52
2022/06/06 04:58:49;;;;;;;;;;;;;;;27.10;52.40;98756.25;2080584;28;19929;-54
2022/06/06 04:59:51;;;;;;;;;;;;;;;27.09;52.46;98750.00;2079187;28;19928;-52
2022/06/06 05:00:52;;;;;;;;;;;;;;;27.09;52.57;98755.44;2077165;28;20560;-52
2022/06/06 05:01:54;;;;;;;;;;;;;;;27.08;52.78;98753.81;2081765;28;20016;-50
2022/06/06 05:02:55;;;;;;;;;;;;;;;27.08;53.05;98747.50;2081883;28;19936;-55
2022/06/06 05:03:57;;;;;;;;;;;;;;;27.07;52.72;98754.03;2084427;28;19929;-53
2022/06/06 05:04:57;;;;;;;;;;;;;;;27.08;52.47;98755.69;2084027;28;19949;-55
2022/06/06 05:06:06;;;;;;;;;;;;;;;27.08;52.96;98753.81;2083557;28;20011;-52
2022/06/06 05:07:22;;;;;;;;;;;;;;;27.09;52.51;98754.63;2084313;28;19929;-53
2022/06/06 05:08:32;;;;;;;;;;;;;;;27.10;52.67;98758.97;2082176;28;20455;-54
2022/06/06 05:09:39;;;;;;;;;;;;;;;27.11;52.57;98761.47;2080163;28;19936;-55
2022/06/06 05:10:58;;;;;;;;;;;;;;;27.10;52.47;98762.50;2083892;28;20090;-54
2022/06/06 05:12:05;;;;;;;;;;;;;;;27.11;52.61;98752.47;2085117;28;20571;-54
2022/06/06 05:13:37;;;;;;;;;;;;;;;27.11;52.29;98760.63;2082871;28;19929;-54
2022/06/06 05:14:44;;;;;;;;;;;;;;;27.11;52.83;98760.63;2057935;28;19979;-52
2022/06/06 05:15:54;;;;;;;;;;;;;;;27.09;52.68;98760.88;2056222;28;20065;-54
2022/06/06 05:17:04;;;;;;;;;;;;;;;27.10;52.69;98762.50;2063326;28;19929;-55
2022/06/06 05:18:13;;;;;;;;;;;;;;;27.09;52.68;98757.34;2081647;28;19929;-54
2022/06/06 05:19:28;;;;;;;;;;;;;;;27.10;52.85;98750.81;2083531;28;20842;-51
2022/06/06 05:20:45;;;;;;;;;;;;;;;27.10;52.80;98761.69;2083785;28;19929;-53
2022/06/06 05:21:57;;;;;;;;;;;;;;;27.11;52.52;98760.63;2082757;28;20023;-53
2022/06/06 05:23:10;;;;;;;;;;;;;;;27.11;52.74;98766.09;2084679;28;20684;-55
2022/06/06 05:24:27;;;;;;;;;;;;;;;27.11;52.55;98764.19;2083791;28;20565;-51
2022/06/06 05:25:41;;;;;;;;;;;;;;;27.11;52.36;98764.19;2083586;28;19929;-54
2022/06/06 05:26:55;;;;;;;;;;;;;;;27.12;52.47;98765.00;2082827;28;19935;-54
2022/06/06 05:28:05;;;;;;;;;;;;;;;27.14;52.48;98762.84;2080385;28;19936;-53
2022/06/06 05:29:23;;;;;;;;;;;;;;;27.12;52.41;98760.38;2082067;28;19931;-56
2022/06/06 05:30:30;;;;;;;;;;;;;;;27.10;52.94;98761.69;2082503;28;19932;-56
2022/06/06 05:31:35;;;;;;;;;;;;;;;27.10;52.88;98756.25;2081898;28;19932;-54
2022/06/06 05:32:54;;;;;;;;;;;;;;;27.08;53.05;98758.41;2081323;28;19929;-54
2022/06/06 05:33:57;;;;;;;;;;;;;;;27.07;53.35;98759.50;2083067;28;19933;-52
2022/06/06 05:35:03;;;;;;;;;;;;;;;27.08;52.84;98753.81;2081918;28;19928;-52
2022/06/06 05:36:22;;;;;;;;;;;;;;;27.10;53.32;98761.69;2081141;28;19932;-55
2022/06/06 05:37:31;;;;;;;;;;;;;;;27.11;53.17;98758.72;2070732;28;20020;-54
2022/06/06 05:38:48;;;;;;;;;;;;;;;27.10;53.22;98751.63;2081108;28;19978;-54
2022/06/06 05:40:03;;;;;;;;;;;;;;;27.11;52.89;98752.47;2078649;28;19936;-53
2022/06/06 05:41:09;;;;;;;;;;;;;;;27.11;52.84;98760.63;2082682;28;19929;-53
2022/06/06 05:42:20;;;;;;;;;;;;;;;27.09;52.94;98755.44;2084405;28;19932;-54
2022/06/06 05:43:31;;;;;;;;;;;;;;;27.10;52.93;98761.69;2081535;28;19929;-54
2022/06/06 05:44:37;;;;;;;;;;;;;;;27.09;52.97;98760.88;2079931;28;19936;-54
2022/06/06 05:45:45;;;;;;;;;;;;;;;27.10;53.10;98769.88;2081598;28;19935;-51
2022/06/06 05:46:50;;;;;;;;;;;;;;;27.08;52.98;98766.56;2079929;28;20333;-54